sensor_id;sensor_type;location;lat;lon;timestamp;P1;durP1;ratioP1;P2;durP2;ratioP2
59239;SDS011;45010;53.640;10.578;2023-11-18T00:02:11;0.50;;;0.50;;
59239;SDS011;45010;53.640;10.578;2023-11-18T00:05:12;0.40;;;0.40;;
59239;SDS011;45010;53.640;10.578;2023-11-18T00:08:12;0.80;;;0.60;;
59239;SDS011;45010;53.640;10.578;2023-11-18T00:11:13;0.63;;;0.60;;
59239;SDS011;45010;53.640;10.578;2023-11-18T00:14:13;0.50;;;0.50;;
59239;SDS011;45010;53.640;10.578;2023-11-18T00:17:14;0.63;;;0.52;;
59239;SDS011;45010;53.640;10.578;2023-11-18T00:20:15;1.05;;;0.50;;
59239;SDS011;45010;53.640;10.578;2023-11-18T00:23:16;0.40;;;0.40;;
59239;SDS011;45010;53.640;10.578;2023-11-18T00:26:17;0.40;;;0.40;;
59239;SDS011;45010;53.640;10.578;2023-11-18T00:29:17;0.68;;;0.60;;
59239;SDS011;45010;53.640;10.578;2023-11-18T00:32:18;1.85;;;0.70;;
59239;SDS011;45010;53.640;10.578;2023-11-18T00:35:19;0.57;;;0.57;;
59239;SDS011;45010;53.640;10.578;2023-11-18T00:38:19;0.60;;;0.55;;
59239;SDS011;45010;53.640;10.578;2023-11-18T00:41:19;1.05;;;0.50;;
59239;SDS011;45010;53.640;10.578;2023-11-18T00:44:19;0.68;;;0.55;;
59239;SDS011;45010;53.640;10.578;2023-11-18T00:47:20;1.65;;;0.40;;
59239;SDS011;45010;53.640;10.578;2023-11-18T00:50:22;0.82;;;0.50;;
59239;SDS011;45010;53.640;10.578;2023-11-18T00:53:22;0.63;;;0.50;;
59239;SDS011;45010;53.640;10.578;2023-11-18T00:56:23;0.70;;;0.30;;
59239;SDS011;45010;53.640;10.578;2023-11-18T00:59:23;0.85;;;0.60;;
59239;SDS011;45010;53.640;10.578;2023-11-18T01:02:24;0.70;;;0.40;;
59239;SDS011;45010;53.640;10.578;2023-11-18T01:05:24;0.77;;;0.60;;
59239;SDS011;45010;53.640;10.578;2023-11-18T01:08:24;0.52;;;0.43;;
59239;SDS011;45010;53.640;10.578;2023-11-18T01:11:26;0.77;;;0.47;;
59239;SDS011;45010;53.640;10.578;2023-11-18T01:14:26;0.57;;;0.43;;
59239;SDS011;45010;53.640;10.578;2023-11-18T01:17:27;0.82;;;0.60;;
59239;SDS011;45010;53.640;10.578;2023-11-18T01:20:27;1.80;;;0.50;;
59239;SDS011;45010;53.640;10.578;2023-11-18T01:23:27;0.45;;;0.45;;
59239;SDS011;45010;53.640;10.578;2023-11-18T01:26:28;1.15;;;0.73;;
59239;SDS011;45010;53.640;10.578;2023-11-18T01:29:28;1.02;;;0.40;;
59239;SDS011;45010;53.640;10.578;2023-11-18T01:32:28;0.98;;;0.60;;
59239;SDS011;45010;53.640;10.578;2023-11-18T01:35:30;0.68;;;0.55;;
59239;SDS011;45010;53.640;10.578;2023-11-18T01:38:31;1.25;;;0.40;;
59239;SDS011;45010;53.640;10.578;2023-11-18T01:41:31;0.47;;;0.40;;
59239;SDS011;45010;53.640;10.578;2023-11-18T01:44:32;0.55;;;0.50;;
59239;SDS011;45010;53.640;10.578;2023-11-18T01:47:35;0.40;;;0.30;;
59239;SDS011;45010;53.640;10.578;2023-11-18T01:50:37;0.40;;;0.38;;
59239;SDS011;45010;53.640;10.578;2023-11-18T01:53:40;0.60;;;0.47;;
59239;SDS011;45010;53.640;10.578;2023-11-18T01:56:48;0.70;;;0.55;;
59239;SDS011;45010;53.640;10.578;2023-11-18T01:59:49;0.60;;;0.60;;
59239;SDS011;45010;53.640;10.578;2023-11-18T02:02:49;0.40;;;0.40;;
59239;SDS011;45010;53.640;10.578;2023-11-18T02:05:50;0.70;;;0.60;;
59239;SDS011;45010;53.640;10.578;2023-11-18T02:08:51;0.30;;;0.30;;
59239;SDS011;45010;53.640;10.578;2023-11-18T02:11:53;0.57;;;0.57;;
59239;SDS011;45010;53.640;10.578;2023-11-18T02:14:57;0.60;;;0.55;;
59239;SDS011;45010;53.640;10.578;2023-11-18T02:17:57;0.50;;;0.40;;
59239;SDS011;45010;53.640;10.578;2023-11-18T02:20:59;0.50;;;0.50;;
59239;SDS011;45010;53.640;10.578;2023-11-18T02:23:59;0.43;;;0.43;;
59239;SDS011;45010;53.640;10.578;2023-11-18T02:27:00;0.50;;;0.50;;
59239;SDS011;45010;53.640;10.578;2023-11-18T02:30:00;0.55;;;0.50;;
59239;SDS011;45010;53.640;10.578;2023-11-18T02:33:08;1.52;;;0.50;;
59239;SDS011;45010;53.640;10.578;2023-11-18T02:36:25;0.52;;;0.52;;
59239;SDS011;45010;53.640;10.578;2023-11-18T02:39:37;0.73;;;0.50;;
59239;SDS011;45010;53.640;10.578;2023-11-18T02:42:41;0.60;;;0.55;;
59239;SDS011;45010;53.640;10.578;2023-11-18T02:45:43;0.40;;;0.40;;
59239;SDS011;45010;53.640;10.578;2023-11-18T02:48:44;0.88;;;0.70;;
59239;SDS011;45010;53.640;10.578;2023-11-18T02:51:44;0.45;;;0.40;;
59239;SDS011;45010;53.640;10.578;2023-11-18T02:54:47;0.63;;;0.45;;
59239;SDS011;45010;53.640;10.578;2023-11-18T02:57:48;0.50;;;0.40;;
59239;SDS011;45010;53.640;10.578;2023-11-18T03:00:49;1.45;;;0.68;;
59239;SDS011;45010;53.640;10.578;2023-11-18T03:03:49;0.40;;;0.40;;
59239;SDS011;45010;53.640;10.578;2023-11-18T03:06:50;0.40;;;0.40;;
59239;SDS011;45010;53.640;10.578;2023-11-18T03:09:50;0.75;;;0.43;;
59239;SDS011;45010;53.640;10.578;2023-11-18T03:12:51;0.50;;;0.50;;
59239;SDS011;45010;53.640;10.578;2023-11-18T03:15:53;0.40;;;0.38;;
59239;SDS011;45010;53.640;10.578;2023-11-18T03:18:53;0.70;;;0.40;;
59239;SDS011;45010;53.640;10.578;2023-11-18T03:21:54;0.90;;;0.50;;
59239;SDS011;45010;53.640;10.578;2023-11-18T03:24:56;0.40;;;0.35;;
59239;SDS011;45010;53.640;10.578;2023-11-18T03:27:56;0.63;;;0.40;;
59239;SDS011;45010;53.640;10.578;2023-11-18T03:30:56;0.40;;;0.40;;
59239;SDS011;45010;53.640;10.578;2023-11-18T03:33:57;0.50;;;0.50;;
59239;SDS011;45010;53.640;10.578;2023-11-18T03:36:57;0.73;;;0.40;;
59239;SDS011;45010;53.640;10.578;2023-11-18T03:39:57;0.52;;;0.50;;
59239;SDS011;45010;53.640;10.578;2023-11-18T03:42:58;0.70;;;0.70;;
59239;SDS011;45010;53.640;10.578;2023-11-18T03:45:58;0.30;;;0.30;;
59239;SDS011;45010;53.640;10.578;2023-11-18T03:48:58;0.55;;;0.55;;
59239;SDS011;45010;53.640;10.578;2023-11-18T03:51:59;0.68;;;0.57;;
59239;SDS011;45010;53.640;10.578;2023-11-18T03:54:59;1.40;;;0.57;;
59239;SDS011;45010;53.640;10.578;2023-11-18T03:57:59;0.60;;;0.55;;
59239;SDS011;45010;53.640;10.578;2023-11-18T04:01:00;1.50;;;0.60;;
59239;SDS011;45010;53.640;10.578;2023-11-18T04:04:01;0.50;;;0.50;;
59239;SDS011;45010;53.640;10.578;2023-11-18T04:07:02;0.90;;;0.60;;
59239;SDS011;45010;53.640;10.578;2023-11-18T04:10:02;0.50;;;0.40;;
59239;SDS011;45010;53.640;10.578;2023-11-18T04:13:05;0.60;;;0.50;;
59239;SDS011;45010;53.640;10.578;2023-11-18T04:16:06;0.50;;;0.50;;
59239;SDS011;45010;53.640;10.578;2023-11-18T04:19:09;1.02;;;0.43;;
59239;SDS011;45010;53.640;10.578;2023-11-18T04:22:10;0.40;;;0.32;;
59239;SDS011;45010;53.640;10.578;2023-11-18T04:25:11;0.57;;;0.50;;
59239;SDS011;45010;53.640;10.578;2023-11-18T04:28:11;0.30;;;0.30;;
59239;SDS011;45010;53.640;10.578;2023-11-18T04:31:12;0.73;;;0.57;;
59239;SDS011;45010;53.640;10.578;2023-11-18T04:34:13;0.52;;;0.52;;
59239;SDS011;45010;53.640;10.578;2023-11-18T04:37:13;0.30;;;0.30;;
59239;SDS011;45010;53.640;10.578;2023-11-18T04:40:15;0.40;;;0.40;;
59239;SDS011;45010;53.640;10.578;2023-11-18T04:43:15;0.50;;;0.47;;
59239;SDS011;45010;53.640;10.578;2023-11-18T04:46:16;0.35;;;0.35;;
59239;SDS011;45010;53.640;10.578;2023-11-18T04:49:16;0.40;;;0.40;;
59239;SDS011;45010;53.640;10.578;2023-11-18T04:52:16;0.45;;;0.45;;
59239;SDS011;45010;53.640;10.578;2023-11-18T04:55:17;0.40;;;0.40;;
59239;SDS011;45010;53.640;10.578;2023-11-18T04:58:18;1.02;;;0.50;;
59239;SDS011;45010;53.640;10.578;2023-11-18T05:01:19;0.70;;;0.50;;
59239;SDS011;45010;53.640;10.578;2023-11-18T05:04:19;0.40;;;0.40;;
59239;SDS011;45010;53.640;10.578;2023-11-18T05:07:19;0.40;;;0.40;;
59239;SDS011;45010;53.640;10.578;2023-11-18T05:10:20;0.65;;;0.40;;
59239;SDS011;45010;53.640;10.578;2023-11-18T05:13:20;0.38;;;0.38;;
59239;SDS011;45010;53.640;10.578;2023-11-18T05:16:21;0.50;;;0.50;;
59239;SDS011;45010;53.640;10.578;2023-11-18T05:19:22;0.40;;;0.40;;
59239;SDS011;45010;53.640;10.578;2023-11-18T05:22:22;0.40;;;0.40;;
59239;SDS011;45010;53.640;10.578;2023-11-18T05:25:22;0.40;;;0.40;;
59239;SDS011;45010;53.640;10.578;2023-11-18T05:28:24;0.60;;;0.60;;
59239;SDS011;45010;53.640;10.578;2023-11-18T05:31:25;0.52;;;0.52;;
59239;SDS011;45010;53.640;10.578;2023-11-18T05:34:25;0.50;;;0.50;;
59239;SDS011;45010;53.640;10.578;2023-11-18T05:37:25;0.50;;;0.50;;
59239;SDS011;45010;53.640;10.578;2023-11-18T05:40:28;0.60;;;0.60;;
59239;SDS011;45010;53.640;10.578;2023-11-18T05:43:30;0.50;;;0.50;;
59239;SDS011;45010;53.640;10.578;2023-11-18T05:46:40;0.38;;;0.35;;
59239;SDS011;45010;53.640;10.578;2023-11-18T05:49:40;0.50;;;0.50;;
59239;SDS011;45010;53.640;10.578;2023-11-18T05:52:40;0.50;;;0.50;;
59239;SDS011;45010;53.640;10.578;2023-11-18T05:55:41;0.60;;;0.60;;
59239;SDS011;45010;53.640;10.578;2023-11-18T05:58:41;0.60;;;0.60;;
59239;SDS011;45010;53.640;10.578;2023-11-18T06:01:43;0.45;;;0.45;;
59239;SDS011;45010;53.640;10.578;2023-11-18T06:04:44;0.65;;;0.65;;
59239;SDS011;45010;53.640;10.578;2023-11-18T06:07:44;0.70;;;0.70;;
59239;SDS011;45010;53.640;10.578;2023-11-18T06:10:47;0.57;;;0.50;;
59239;SDS011;45010;53.640;10.578;2023-11-18T06:13:50;0.50;;;0.50;;
59239;SDS011;45010;53.640;10.578;2023-11-18T06:16:51;0.57;;;0.57;;
59239;SDS011;45010;53.640;10.578;2023-11-18T06:19:52;0.50;;;0.50;;
59239;SDS011;45010;53.640;10.578;2023-11-18T06:22:52;0.63;;;0.63;;
59239;SDS011;45010;53.640;10.578;2023-11-18T06:25:52;0.40;;;0.40;;
59239;SDS011;45010;53.640;10.578;2023-11-18T06:28:53;0.40;;;0.40;;
59239;SDS011;45010;53.640;10.578;2023-11-18T06:31:54;0.50;;;0.50;;
59239;SDS011;45010;53.640;10.578;2023-11-18T06:34:55;0.50;;;0.50;;
59239;SDS011;45010;53.640;10.578;2023-11-18T06:37:55;0.55;;;0.47;;
59239;SDS011;45010;53.640;10.578;2023-11-18T06:40:55;0.65;;;0.52;;
59239;SDS011;45010;53.640;10.578;2023-11-18T06:43:56;0.50;;;0.50;;
59239;SDS011;45010;53.640;10.578;2023-11-18T06:46:59;1.35;;;0.60;;
59239;SDS011;45010;53.640;10.578;2023-11-18T06:50:02;0.40;;;0.40;;
59239;SDS011;45010;53.640;10.578;2023-11-18T06:53:02;0.60;;;0.60;;
59239;SDS011;45010;53.640;10.578;2023-11-18T06:56:04;0.73;;;0.73;;
59239;SDS011;45010;53.640;10.578;2023-11-18T06:59:05;0.65;;;0.65;;
59239;SDS011;45010;53.640;10.578;2023-11-18T07:02:10;0.60;;;0.60;;
59239;SDS011;45010;53.640;10.578;2023-11-18T07:05:10;0.60;;;0.60;;
59239;SDS011;45010;53.640;10.578;2023-11-18T07:08:14;0.73;;;0.60;;
59239;SDS011;45010;53.640;10.578;2023-11-18T07:11:18;0.60;;;0.57;;
59239;SDS011;45010;53.640;10.578;2023-11-18T07:14:20;0.50;;;0.50;;
59239;SDS011;45010;53.640;10.578;2023-11-18T07:17:20;3.22;;;0.50;;
59239;SDS011;45010;53.640;10.578;2023-11-18T07:20:21;0.63;;;0.63;;
59239;SDS011;45010;53.640;10.578;2023-11-18T07:23:21;0.77;;;0.68;;
59239;SDS011;45010;53.640;10.578;2023-11-18T07:26:22;0.60;;;0.60;;
59239;SDS011;45010;53.640;10.578;2023-11-18T07:29:24;0.80;;;0.80;;
59239;SDS011;45010;53.640;10.578;2023-11-18T07:32:24;0.55;;;0.45;;
59239;SDS011;45010;53.640;10.578;2023-11-18T07:35:24;0.60;;;0.60;;
59239;SDS011;45010;53.640;10.578;2023-11-18T07:38:25;1.13;;;1.02;;
59239;SDS011;45010;53.640;10.578;2023-11-18T07:41:27;0.50;;;0.50;;
59239;SDS011;45010;53.640;10.578;2023-11-18T07:44:27;0.50;;;0.50;;
59239;SDS011;45010;53.640;10.578;2023-11-18T07:47:29;0.60;;;0.60;;
59239;SDS011;45010;53.640;10.578;2023-11-18T07:50:31;1.15;;;0.70;;
59239;SDS011;45010;53.640;10.578;2023-11-18T07:53:32;0.73;;;0.57;;
59239;SDS011;45010;53.640;10.578;2023-11-18T07:56:33;0.60;;;0.60;;
59239;SDS011;45010;53.640;10.578;2023-11-18T07:59:33;1.98;;;0.70;;
59239;SDS011;45010;53.640;10.578;2023-11-18T08:02:33;0.75;;;0.75;;
59239;SDS011;45010;53.640;10.578;2023-11-18T08:05:35;1.15;;;0.60;;
59239;SDS011;45010;53.640;10.578;2023-11-18T08:08:36;0.70;;;0.63;;
59239;SDS011;45010;53.640;10.578;2023-11-18T08:11:38;1.33;;;0.90;;
59239;SDS011;45010;53.640;10.578;2023-11-18T08:14:39;1.75;;;0.60;;
59239;SDS011;45010;53.640;10.578;2023-11-18T08:17:39;0.82;;;0.82;;
59239;SDS011;45010;53.640;10.578;2023-11-18T08:20:40;0.93;;;0.80;;
59239;SDS011;45010;53.640;10.578;2023-11-18T08:23:41;1.17;;;0.90;;
59239;SDS011;45010;53.640;10.578;2023-11-18T08:26:41;0.85;;;0.85;;
59239;SDS011;45010;53.640;10.578;2023-11-18T08:29:42;1.35;;;1.00;;
59239;SDS011;45010;53.640;10.578;2023-11-18T08:32:42;1.48;;;1.33;;
59239;SDS011;45010;53.640;10.578;2023-11-18T08:35:44;2.17;;;1.30;;
59239;SDS011;45010;53.640;10.578;2023-11-18T08:38:44;1.25;;;1.13;;
59239;SDS011;45010;53.640;10.578;2023-11-18T08:41:48;2.45;;;1.13;;
59239;SDS011;45010;53.640;10.578;2023-11-18T08:44:50;1.98;;;1.17;;
59239;SDS011;45010;53.640;10.578;2023-11-18T08:47:50;1.50;;;1.38;;
59239;SDS011;45010;53.640;10.578;2023-11-18T08:50:53;1.85;;;1.55;;
59239;SDS011;45010;53.640;10.578;2023-11-18T08:53:53;1.75;;;1.52;;
59239;SDS011;45010;53.640;10.578;2023-11-18T08:56:55;2.00;;;1.50;;
59239;SDS011;45010;53.640;10.578;2023-11-18T08:59:55;2.25;;;1.55;;
59239;SDS011;45010;53.640;10.578;2023-11-18T09:02:58;1.40;;;1.30;;
59239;SDS011;45010;53.640;10.578;2023-11-18T09:06:01;2.33;;;1.70;;
59239;SDS011;45010;53.640;10.578;2023-11-18T09:09:04;2.08;;;1.42;;
59239;SDS011;45010;53.640;10.578;2023-11-18T09:12:11;3.80;;;1.90;;
59239;SDS011;45010;53.640;10.578;2023-11-18T09:15:12;2.92;;;1.58;;
59239;SDS011;45010;53.640;10.578;2023-11-18T09:18:22;2.95;;;1.55;;
59239;SDS011;45010;53.640;10.578;2023-11-18T09:21:25;2.88;;;1.67;;
59239;SDS011;45010;53.640;10.578;2023-11-18T09:24:29;1.60;;;1.45;;
59239;SDS011;45010;53.640;10.578;2023-11-18T09:27:30;2.13;;;1.48;;
59239;SDS011;45010;53.640;10.578;2023-11-18T09:30:32;3.35;;;1.80;;
59239;SDS011;45010;53.640;10.578;2023-11-18T09:33:33;2.40;;;1.88;;
59239;SDS011;45010;53.640;10.578;2023-11-18T09:36:34;5.18;;;1.80;;
59239;SDS011;45010;53.640;10.578;2023-11-18T09:39:34;2.60;;;1.75;;
59239;SDS011;45010;53.640;10.578;2023-11-18T09:42:37;3.67;;;1.70;;
59239;SDS011;45010;53.640;10.578;2023-11-18T09:45:38;2.70;;;1.70;;
59239;SDS011;45010;53.640;10.578;2023-11-18T09:48:40;2.10;;;1.58;;
59239;SDS011;45010;53.640;10.578;2023-11-18T09:51:43;2.58;;;1.73;;
59239;SDS011;45010;53.640;10.578;2023-11-18T09:57:57;3.10;;;2.30;;
59239;SDS011;45010;53.640;10.578;2023-11-18T10:01:04;4.43;;;3.13;;
59239;SDS011;45010;53.640;10.578;2023-11-18T10:04:05;3.17;;;2.80;;
59239;SDS011;45010;53.640;10.578;2023-11-18T10:07:06;4.53;;;3.65;;
59239;SDS011;45010;53.640;10.578;2023-11-18T10:10:11;3.75;;;2.97;;
59239;SDS011;45010;53.640;10.578;2023-11-18T10:13:14;2.63;;;2.22;;
59239;SDS011;45010;53.640;10.578;2023-11-18T10:16:24;2.05;;;1.90;;
59239;SDS011;45010;53.640;10.578;2023-11-18T10:19:49;2.10;;;1.90;;
59239;SDS011;45010;53.640;10.578;2023-11-18T10:23:13;3.65;;;1.77;;
59239;SDS011;45010;53.640;10.578;2023-11-18T10:26:19;2.50;;;1.70;;
59239;SDS011;45010;53.640;10.578;2023-11-18T10:29:24;3.15;;;1.67;;
59239;SDS011;45010;53.640;10.578;2023-11-18T10:32:28;3.35;;;1.65;;
59239;SDS011;45010;53.640;10.578;2023-11-18T10:35:28;2.63;;;1.30;;
59239;SDS011;45010;53.640;10.578;2023-11-18T10:38:32;1.38;;;1.00;;
59239;SDS011;45010;53.640;10.578;2023-11-18T10:41:43;2.65;;;1.63;;
59239;SDS011;45010;53.640;10.578;2023-11-18T10:44:56;1.73;;;1.50;;
59239;SDS011;45010;53.640;10.578;2023-11-18T10:47:57;6.47;;;1.20;;
59239;SDS011;45010;53.640;10.578;2023-11-18T10:50:58;2.13;;;1.42;;
59239;SDS011;45010;53.640;10.578;2023-11-18T10:53:59;1.85;;;1.25;;
59239;SDS011;45010;53.640;10.578;2023-11-18T10:57:01;1.65;;;1.15;;
59239;SDS011;45010;53.640;10.578;2023-11-18T11:00:07;1.77;;;1.13;;
59239;SDS011;45010;53.640;10.578;2023-11-18T11:03:15;2.33;;;1.45;;
59239;SDS011;45010;53.640;10.578;2023-11-18T11:06:16;1.30;;;1.15;;
59239;SDS011;45010;53.640;10.578;2023-11-18T11:09:22;1.20;;;1.10;;
59239;SDS011;45010;53.640;10.578;2023-11-18T11:12:36;1.77;;;1.30;;
59239;SDS011;45010;53.640;10.578;2023-11-18T11:15:51;2.72;;;0.98;;
59239;SDS011;45010;53.640;10.578;2023-11-18T11:18:55;1.50;;;1.10;;
59239;SDS011;45010;53.640;10.578;2023-11-18T11:22:00;3.50;;;1.20;;
59239;SDS011;45010;53.640;10.578;2023-11-18T11:25:41;1.95;;;1.30;;
59239;SDS011;45010;53.640;10.578;2023-11-18T11:35:33;104.25;;;23.00;;
59239;SDS011;45010;53.640;10.578;2023-11-18T11:38:38;89.95;;;20.48;;
59239;SDS011;45010;53.640;10.578;2023-11-18T11:41:38;72.80;;;18.00;;
59239;SDS011;45010;53.640;10.578;2023-11-18T11:44:39;71.53;;;17.75;;
59239;SDS011;45010;53.640;10.578;2023-11-18T11:47:42;67.60;;;17.30;;
59239;SDS011;45010;53.640;10.578;2023-11-18T11:57:15;55.92;;;12.80;;
59239;SDS011;45010;53.640;10.578;2023-11-18T12:00:15;34.05;;;10.18;;
59239;SDS011;45010;53.640;10.578;2023-11-18T12:03:16;36.83;;;11.07;;
59239;SDS011;45010;53.640;10.578;2023-11-18T12:06:19;34.35;;;10.55;;
59239;SDS011;45010;53.640;10.578;2023-11-18T12:09:23;24.42;;;8.63;;
59239;SDS011;45010;53.640;10.578;2023-11-18T12:12:33;32.05;;;8.45;;
59239;SDS011;45010;53.640;10.578;2023-11-18T12:15:53;25.48;;;8.13;;
59239;SDS011;45010;53.640;10.578;2023-11-18T12:19:28;32.25;;;8.25;;
59239;SDS011;45010;53.640;10.578;2023-11-18T12:23:02;26.90;;;7.65;;
59239;SDS011;45010;53.640;10.578;2023-11-18T12:26:37;20.17;;;7.28;;
59239;SDS011;45010;53.640;10.578;2023-11-18T12:29:41;25.10;;;6.32;;
59239;SDS011;45010;53.640;10.578;2023-11-18T12:39:32;15.85;;;5.50;;
59239;SDS011;45010;53.640;10.578;2023-11-18T12:46:14;15.02;;;5.70;;
59239;SDS011;45010;53.640;10.578;2023-11-18T12:49:43;17.35;;;4.90;;
59239;SDS011;45010;53.640;10.578;2023-11-18T12:52:44;16.38;;;5.18;;
59239;SDS011;45010;53.640;10.578;2023-11-18T12:55:44;12.63;;;5.32;;
59239;SDS011;45010;53.640;10.578;2023-11-18T12:58:48;10.40;;;4.78;;
59239;SDS011;45010;53.640;10.578;2023-11-18T13:01:48;12.70;;;4.65;;
59239;SDS011;45010;53.640;10.578;2023-11-18T13:04:56;10.52;;;5.07;;
59239;SDS011;45010;53.640;10.578;2023-11-18T13:07:57;15.43;;;4.60;;
59239;SDS011;45010;53.640;10.578;2023-11-18T13:10:59;13.00;;;5.18;;
59239;SDS011;45010;53.640;10.578;2023-11-18T13:14:03;11.68;;;3.92;;
59239;SDS011;45010;53.640;10.578;2023-11-18T13:17:03;10.82;;;4.30;;
59239;SDS011;45010;53.640;10.578;2023-11-18T13:20:12;9.15;;;3.40;;
59239;SDS011;45010;53.640;10.578;2023-11-18T13:23:16;11.98;;;4.38;;
59239;SDS011;45010;53.640;10.578;2023-11-18T13:26:18;10.70;;;3.90;;
59239;SDS011;45010;53.640;10.578;2023-11-18T13:29:20;10.32;;;3.90;;
59239;SDS011;45010;53.640;10.578;2023-11-18T13:32:21;9.52;;;3.42;;
59239;SDS011;45010;53.640;10.578;2023-11-18T13:35:26;8.82;;;3.58;;
59239;SDS011;45010;53.640;10.578;2023-11-18T13:38:27;7.25;;;3.35;;
59239;SDS011;45010;53.640;10.578;2023-11-18T13:41:29;5.60;;;3.15;;
59239;SDS011;45010;53.640;10.578;2023-11-18T13:44:35;9.05;;;3.67;;
59239;SDS011;45010;53.640;10.578;2023-11-18T13:47:38;8.60;;;3.67;;
59239;SDS011;45010;53.640;10.578;2023-11-18T13:50:40;12.40;;;3.45;;
59239;SDS011;45010;53.640;10.578;2023-11-18T13:53:42;11.88;;;3.15;;
59239;SDS011;45010;53.640;10.578;2023-11-18T13:56:46;7.53;;;2.97;;
59239;SDS011;45010;53.640;10.578;2023-11-18T13:59:47;8.10;;;3.05;;
59239;SDS011;45010;53.640;10.578;2023-11-18T14:02:49;10.30;;;3.50;;
59239;SDS011;45010;53.640;10.578;2023-11-18T14:05:51;6.60;;;2.95;;
59239;SDS011;45010;53.640;10.578;2023-11-18T14:08:52;6.95;;;2.88;;
59239;SDS011;45010;53.640;10.578;2023-11-18T14:11:52;7.13;;;3.03;;
59239;SDS011;45010;53.640;10.578;2023-11-18T14:14:56;7.90;;;2.50;;
59239;SDS011;45010;53.640;10.578;2023-11-18T14:17:56;7.35;;;2.95;;
59239;SDS011;45010;53.640;10.578;2023-11-18T14:20:57;6.03;;;2.60;;
59239;SDS011;45010;53.640;10.578;2023-11-18T14:23:58;6.28;;;2.80;;
59239;SDS011;45010;53.640;10.578;2023-11-18T14:27:02;7.38;;;3.35;;
59239;SDS011;45010;53.640;10.578;2023-11-18T14:30:04;5.63;;;2.80;;
59239;SDS011;45010;53.640;10.578;2023-11-18T14:33:08;8.27;;;3.30;;
59239;SDS011;45010;53.640;10.578;2023-11-18T14:36:08;6.40;;;2.50;;
59239;SDS011;45010;53.640;10.578;2023-11-18T14:39:09;8.60;;;2.70;;
59239;SDS011;45010;53.640;10.578;2023-11-18T14:42:10;6.50;;;2.75;;
59239;SDS011;45010;53.640;10.578;2023-11-18T14:45:11;5.97;;;2.30;;
59239;SDS011;45010;53.640;10.578;2023-11-18T14:48:13;7.32;;;2.25;;
59239;SDS011;45010;53.640;10.578;2023-11-18T14:51:13;4.50;;;2.00;;
59239;SDS011;45010;53.640;10.578;2023-11-18T14:54:14;5.40;;;2.25;;
59239;SDS011;45010;53.640;10.578;2023-11-18T14:57:15;8.57;;;2.72;;
59239;SDS011;45010;53.640;10.578;2023-11-18T15:00:16;5.07;;;2.22;;
59239;SDS011;45010;53.640;10.578;2023-11-18T15:03:19;4.00;;;2.30;;
59239;SDS011;45010;53.640;10.578;2023-11-18T15:06:24;3.58;;;1.85;;
59239;SDS011;45010;53.640;10.578;2023-11-18T15:09:25;4.35;;;2.08;;
59239;SDS011;45010;53.640;10.578;2023-11-18T15:12:29;5.28;;;1.73;;
59239;SDS011;45010;53.640;10.578;2023-11-18T15:15:30;7.07;;;2.00;;
59239;SDS011;45010;53.640;10.578;2023-11-18T15:18:31;5.18;;;2.30;;
59239;SDS011;45010;53.640;10.578;2023-11-18T15:21:32;4.18;;;1.85;;
59239;SDS011;45010;53.640;10.578;2023-11-18T15:24:32;4.95;;;2.20;;
59239;SDS011;45010;53.640;10.578;2023-11-18T15:27:33;4.60;;;1.95;;
59239;SDS011;45010;53.640;10.578;2023-11-18T15:30:33;3.75;;;1.50;;
59239;SDS011;45010;53.640;10.578;2023-11-18T15:33:34;3.88;;;2.08;;
59239;SDS011;45010;53.640;10.578;2023-11-18T15:36:34;3.70;;;2.05;;
59239;SDS011;45010;53.640;10.578;2023-11-18T15:39:41;4.40;;;1.75;;
59239;SDS011;45010;53.640;10.578;2023-11-18T15:42:42;4.15;;;2.05;;
59239;SDS011;45010;53.640;10.578;2023-11-18T15:45:43;3.83;;;2.00;;
59239;SDS011;45010;53.640;10.578;2023-11-18T15:48:44;3.20;;;1.70;;
59239;SDS011;45010;53.640;10.578;2023-11-18T15:51:44;2.53;;;1.48;;
59239;SDS011;45010;53.640;10.578;2023-11-18T15:54:45;3.28;;;1.55;;
59239;SDS011;45010;53.640;10.578;2023-11-18T15:57:47;2.33;;;1.30;;
59239;SDS011;45010;53.640;10.578;2023-11-18T16:00:52;3.33;;;1.70;;
59239;SDS011;45010;53.640;10.578;2023-11-18T16:03:53;4.93;;;2.05;;
59239;SDS011;45010;53.640;10.578;2023-11-18T16:06:53;4.55;;;1.85;;
59239;SDS011;45010;53.640;10.578;2023-11-18T16:09:53;3.72;;;1.98;;
59239;SDS011;45010;53.640;10.578;2023-11-18T16:12:55;2.88;;;1.52;;
59239;SDS011;45010;53.640;10.578;2023-11-18T16:15:57;3.50;;;1.60;;
59239;SDS011;45010;53.640;10.578;2023-11-18T16:18:57;2.60;;;1.67;;
59239;SDS011;45010;53.640;10.578;2023-11-18T16:22:00;2.15;;;1.10;;
59239;SDS011;45010;53.640;10.578;2023-11-18T16:25:00;4.60;;;1.58;;
59239;SDS011;45010;53.640;10.578;2023-11-18T16:28:04;4.28;;;1.42;;
59239;SDS011;45010;53.640;10.578;2023-11-18T16:31:07;2.60;;;1.40;;
59239;SDS011;45010;53.640;10.578;2023-11-18T16:34:08;2.05;;;1.17;;
59239;SDS011;45010;53.640;10.578;2023-11-18T16:37:08;2.95;;;1.30;;
59239;SDS011;45010;53.640;10.578;2023-11-18T16:40:09;3.05;;;1.30;;
59239;SDS011;45010;53.640;10.578;2023-11-18T16:43:13;2.85;;;1.52;;
59239;SDS011;45010;53.640;10.578;2023-11-18T16:46:14;2.47;;;1.30;;
59239;SDS011;45010;53.640;10.578;2023-11-18T16:49:14;2.70;;;1.58;;
59239;SDS011;45010;53.640;10.578;2023-11-18T16:52:16;2.72;;;1.40;;
59239;SDS011;45010;53.640;10.578;2023-11-18T16:55:17;2.28;;;1.23;;
59239;SDS011;45010;53.640;10.578;2023-11-18T16:58:20;3.53;;;1.48;;
59239;SDS011;45010;53.640;10.578;2023-11-18T17:01:21;2.70;;;1.30;;
59239;SDS011;45010;53.640;10.578;2023-11-18T17:04:24;3.25;;;1.08;;
59239;SDS011;45010;53.640;10.578;2023-11-18T17:07:24;2.15;;;1.02;;
59239;SDS011;45010;53.640;10.578;2023-11-18T17:10:26;3.75;;;1.13;;
59239;SDS011;45010;53.640;10.578;2023-11-18T17:13:27;3.22;;;1.70;;
59239;SDS011;45010;53.640;10.578;2023-11-18T17:16:30;2.05;;;1.08;;
59239;SDS011;45010;53.640;10.578;2023-11-18T17:19:31;3.05;;;0.95;;
59239;SDS011;45010;53.640;10.578;2023-11-18T17:22:31;3.10;;;1.15;;
59239;SDS011;45010;53.640;10.578;2023-11-18T17:25:31;3.05;;;1.23;;
59239;SDS011;45010;53.640;10.578;2023-11-18T17:28:32;1.77;;;1.08;;
59239;SDS011;45010;53.640;10.578;2023-11-18T17:31:32;1.75;;;1.10;;
59239;SDS011;45010;53.640;10.578;2023-11-18T17:34:34;2.17;;;1.17;;
59239;SDS011;45010;53.640;10.578;2023-11-18T17:37:35;2.15;;;1.10;;
59239;SDS011;45010;53.640;10.578;2023-11-18T17:40:38;4.00;;;1.42;;
59239;SDS011;45010;53.640;10.578;2023-11-18T17:43:38;3.47;;;1.20;;
59239;SDS011;45010;53.640;10.578;2023-11-18T17:46:39;2.22;;;1.15;;
59239;SDS011;45010;53.640;10.578;2023-11-18T17:49:39;2.13;;;1.05;;
59239;SDS011;45010;53.640;10.578;2023-11-18T17:52:40;2.28;;;1.30;;
59239;SDS011;45010;53.640;10.578;2023-11-18T17:55:41;1.98;;;1.10;;
59239;SDS011;45010;53.640;10.578;2023-11-18T17:58:41;2.00;;;1.38;;
59239;SDS011;45010;53.640;10.578;2023-11-18T18:01:42;1.60;;;1.10;;
59239;SDS011;45010;53.640;10.578;2023-11-18T18:04:42;2.55;;;1.10;;
59239;SDS011;45010;53.640;10.578;2023-11-18T18:07:42;1.77;;;1.05;;
59239;SDS011;45010;53.640;10.578;2023-11-18T18:10:43;1.73;;;1.10;;
59239;SDS011;45010;53.640;10.578;2023-11-18T18:13:43;1.92;;;1.23;;
59239;SDS011;45010;53.640;10.578;2023-11-18T18:16:44;2.33;;;1.33;;
59239;SDS011;45010;53.640;10.578;2023-11-18T18:19:44;2.50;;;1.25;;
59239;SDS011;45010;53.640;10.578;2023-11-18T18:22:45;2.92;;;1.23;;
59239;SDS011;45010;53.640;10.578;2023-11-18T18:25:47;1.67;;;1.20;;
59239;SDS011;45010;53.640;10.578;2023-11-18T18:28:48;2.17;;;1.20;;